Time;durP1;ratioP1;P1;durP2;ratioP2;P2;SDS_P1;SDS_P2;PMS_P1;PMS_P2;Temp;Humidity;BMP_temperature;BMP_pressure;BME280_temperature;BME280_humidity;BME280_pressure;Samples;Min_cycle;Max_cycle;Signal;HPM_P1;HPM_P2
2022/09/14 00:01:59;;;;;;;5.35;1.70;;;;;;;;;;10360902;28;20030;-63
2022/09/14 00:07:00;;;;;;;8.15;1.98;;;;;;;;;;10366351;28;20120;-63
2022/09/14 00:12:00;;;;;;;9.95;2.15;;;;;;;;;;10367088;28;20030;-64
2022/09/14 00:17:01;;;;;;;2.50;1.40;;;;;;;;;;10366486;28;20054;-64
2022/09/14 00:22:02;;;;;;;16.35;1.83;;;;;;;;;;10355993;28;20026;-60
2022/09/14 00:27:03;;;;;;;12.52;1.73;;;;;;;;;;10364360;28;20104;-61
2022/09/14 00:32:03;;;;;;;2.80;1.80;;;;;;;;;;10353219;28;20088;-60
2022/09/14 00:37:04;;;;;;;3.78;1.55;;;;;;;;;;10370416;28;20087;-60
2022/09/14 00:42:05;;;;;;;3.15;1.52;;;;;;;;;;10365596;28;20136;-60
2022/09/14 00:47:06;;;;;;;6.32;1.88;;;;;;;;;;10366186;28;20079;-60
2022/09/14 00:52:09;;;;;;;7.13;2.05;;;;;;;;;;10365216;28;20032;-60
2022/09/14 00:57:10;;;;;;;4.10;1.92;;;;;;;;;;10364136;28;20061;-60
2022/09/14 01:02:13;;;;;;;5.63;1.67;;;;;;;;;;10364494;28;20092;-60
2022/09/14 01:07:35;;;;;;;2.45;1.48;;;;;;;;;;10362538;28;20050;-60
2022/09/14 01:13:02;;;;;;;6.80;1.58;;;;;;;;;;10363366;28;20430;-60
2022/09/14 01:18:21;;;;;;;4.47;1.57;;;;;;;;;;10355153;28;20080;-61
2022/09/14 01:23:49;;;;;;;4.53;1.67;;;;;;;;;;10361792;28;20118;-63
2022/09/14 01:29:11;;;;;;;2.83;1.73;;;;;;;;;;10365352;28;20121;-65
2022/09/14 01:34:56;;;;;;;6.90;1.52;;;;;;;;;;10365310;28;20549;-62
2022/09/14 01:40:06;;;;;;;3.55;1.50;;;;;;;;;;10365116;28;20395;-65
2022/09/14 01:45:11;;;;;;;3.17;1.80;;;;;;;;;;10362937;28;20096;-62
2022/09/14 01:50:24;;;;;;;8.57;1.65;;;;;;;;;;10362958;28;20083;-63
2022/09/14 01:55:33;;;;;;;4.18;1.42;;;;;;;;;;10364285;28;20040;-61
2022/09/14 02:00:38;;;;;;;1.95;1.55;;;;;;;;;;10363689;28;20070;-64
2022/09/14 02:05:55;;;;;;;3.13;1.40;;;;;;;;;;10369720;28;20042;-62
2022/09/14 02:10:57;;;;;;;2.13;1.40;;;;;;;;;;10371583;28;20490;-61
2022/09/14 02:15:57;;;;;;;5.28;1.63;;;;;;;;;;10370708;28;20380;-60
2022/09/14 02:21:04;;;;;;;3.72;1.50;;;;;;;;;;10370343;28;20033;-65
2022/09/14 02:26:05;;;;;;;3.63;1.58;;;;;;;;;;10369123;28;20062;-63
2022/09/14 02:31:29;;;;;;;2.72;1.40;;;;;;;;;;10365665;28;20030;-63
2022/09/14 02:37:04;;;;;;;4.05;1.50;;;;;;;;;;10369382;28;20392;-63
2022/09/14 02:42:42;;;;;;;2.08;1.33;;;;;;;;;;10370092;28;20501;-62
2022/09/14 02:48:13;;;;;;;10.75;1.60;;;;;;;;;;10355655;28;20081;-62
2022/09/14 02:53:36;;;;;;;1.75;1.30;;;;;;;;;;10368714;28;20245;-64
2022/09/14 02:58:44;;;;;;;3.55;1.42;;;;;;;;;;10369947;28;20037;-63
2022/09/14 03:03:44;;;;;;;5.38;1.42;;;;;;;;;;10382772;23;20081;-59
2022/09/14 03:08:45;;;;;;;8.98;1.55;;;;;;;;;;10381088;28;20116;-59
2022/09/14 03:13:46;;;;;;;5.75;1.25;;;;;;;;;;10385180;28;20455;-59
2022/09/14 03:18:46;;;;;;;3.15;1.73;;;;;;;;;;10409059;28;20039;-59
2022/09/14 03:23:54;;;;;;;3.88;1.30;;;;;;;;;;10398378;28;20029;-59
2022/09/14 03:28:57;;;;;;;3.67;1.50;;;;;;;;;;10408657;28;20029;-59
2022/09/14 03:34:00;;;;;;;2.15;1.30;;;;;;;;;;10408823;28;20025;-59
2022/09/14 03:39:00;;;;;;;7.63;1.48;;;;;;;;;;10423589;28;20040;-61
2022/09/14 03:44:01;;;;;;;4.72;1.40;;;;;;;;;;10396260;28;20033;-60
2022/09/14 03:49:02;;;;;;;9.30;2.13;;;;;;;;;;10408728;28;20051;-61
2022/09/14 03:54:02;;;;;;;2.72;1.35;;;;;;;;;;10408213;28;20108;-61
2022/09/14 03:59:03;;;;;;;2.25;1.50;;;;;;;;;;10408885;28;20025;-61
2022/09/14 04:04:04;;;;;;;3.03;1.10;;;;;;;;;;10401569;28;20496;-61
2022/09/14 04:09:04;;;;;;;1.02;0.93;;;;;;;;;;10389450;28;20545;-61
2022/09/14 04:14:06;;;;;;;4.00;1.42;;;;;;;;;;10393673;28;20489;-60
2022/09/14 04:19:09;;;;;;;6.97;1.67;;;;;;;;;;10406505;28;20555;-61
2022/09/14 04:24:12;;;;;;;4.53;1.05;;;;;;;;;;10406388;28;20473;-62
2022/09/14 04:29:13;;;;;;;2.53;1.30;;;;;;;;;;10393669;28;20037;-62
2022/09/14 04:34:14;;;;;;;5.57;1.27;;;;;;;;;;10397773;28;20060;-61
2022/09/14 04:39:14;;;;;;;1.73;1.30;;;;;;;;;;10407646;28;20043;-62
2022/09/14 04:44:15;;;;;;;6.60;1.20;;;;;;;;;;10405347;28;20030;-61
2022/09/14 04:49:17;;;;;;;2.20;1.30;;;;;;;;;;10407342;28;20030;-62
2022/09/14 04:54:19;;;;;;;8.20;1.35;;;;;;;;;;10400845;28;20034;-61
2022/09/14 04:59:20;;;;;;;1.92;1.20;;;;;;;;;;10407197;28;20534;-61
2022/09/14 05:04:20;;;;;;;4.55;1.52;;;;;;;;;;10390318;28;20039;-61
2022/09/14 05:09:21;;;;;;;6.78;1.77;;;;;;;;;;10384686;28;20044;-61
2022/09/14 05:14:21;;;;;;;3.38;1.10;;;;;;;;;;10381941;28;20028;-62
2022/09/14 05:19:22;;;;;;;2.20;1.00;;;;;;;;;;10404161;28;20032;-63
2022/09/14 05:24:23;;;;;;;4.65;1.10;;;;;;;;;;10396220;28;20026;-63
2022/09/14 05:29:24;;;;;;;2.97;1.20;;;;;;;;;;10398128;28;20194;-62
2022/09/14 05:34:25;;;;;;;1.40;1.02;;;;;;;;;;10403438;28;20025;-62
2022/09/14 05:39:25;;;;;;;21.35;1.40;;;;;;;;;;10409046;28;20515;-63
2022/09/14 05:44:26;;;;;;;10.63;2.05;;;;;;;;;;10400814;28;20042;-62
2022/09/14 05:49:26;;;;;;;2.42;1.00;;;;;;;;;;10406085;28;20033;-62
2022/09/14 05:54:27;;;;;;;2.25;1.40;;;;;;;;;;10401727;28;20116;-62
2022/09/14 05:59:30;;;;;;;2.00;1.10;;;;;;;;;;10406074;28;20029;-58
2022/09/14 06:04:31;;;;;;;4.97;2.70;;;;;;;;;;10388876;28;20168;-54
2022/09/14 06:09:31;;;;;;;7.18;2.28;;;;;;;;;;10397171;28;20087;-60
2022/09/14 06:14:32;;;;;;;9.55;1.90;;;;;;;;;;10402893;28;20026;-60
2022/09/14 06:19:33;;;;;;;10.73;2.28;;;;;;;;;;10406563;28;20110;-61
2022/09/14 06:24:34;;;;;;;5.28;2.17;;;;;;;;;;10398591;28;20032;-57
2022/09/14 06:29:35;;;;;;;4.75;1.80;;;;;;;;;;10405980;28;20034;-60
2022/09/14 06:34:35;;;;;;;5.68;2.28;;;;;;;;;;10400103;28;20025;-58
2022/09/14 06:39:36;;;;;;;5.93;2.03;;;;;;;;;;10399798;28;20032;-60
2022/09/14 06:44:37;;;;;;;4.57;1.83;;;;;;;;;;10393948;28;20095;-60
2022/09/14 06:49:37;;;;;;;9.00;2.03;;;;;;;;;;10407530;28;20374;-59
2022/09/14 06:54:38;;;;;;;5.85;2.28;;;;;;;;;;10395853;28;20029;-60
2022/09/14 06:59:39;;;;;;;6.07;1.88;;;;;;;;;;10388753;28;20080;-60
2022/09/14 07:04:40;;;;;;;8.93;2.45;;;;;;;;;;10397003;28;20042;-58
2022/09/14 07:09:40;;;;;;;9.00;2.38;;;;;;;;;;10405070;28;20474;-59
2022/09/14 07:14:41;;;;;;;10.02;2.25;;;;;;;;;;10402608;28;20033;-59
2022/09/14 07:19:42;;;;;;;6.10;2.13;;;;;;;;;;10406698;28;20033;-59
2022/09/14 07:24:42;;;;;;;9.50;2.42;;;;;;;;;;10400476;28;20036;-59
2022/09/14 07:29:43;;;;;;;15.23;3.17;;;;;;;;;;10407015;28;20042;-59
2022/09/14 07:34:44;;;;;;;12.93;2.72;;;;;;;;;;10403852;28;20100;-60
2022/09/14 07:39:44;;;;;;;14.02;2.85;;;;;;;;;;10400088;28;20029;-59
2022/09/14 07:44:45;;;;;;;13.80;2.53;;;;;;;;;;10396176;28;20026;-59
2022/09/14 07:49:45;;;;;;;13.23;2.47;;;;;;;;;;10407886;28;20038;-60
2022/09/14 07:54:46;;;;;;;11.63;2.63;;;;;;;;;;10394751;28;20132;-59
2022/09/14 07:59:47;;;;;;;11.38;2.22;;;;;;;;;;10407629;28;20036;-59
2022/09/14 08:04:47;;;;;;;10.27;2.70;;;;;;;;;;10380472;28;20054;-59
2022/09/14 08:09:48;;;;;;;9.00;2.50;;;;;;;;;;10397897;28;20037;-59
2022/09/14 08:14:50;;;;;;;11.02;2.28;;;;;;;;;;10394313;28;20034;-60
2022/09/14 08:19:51;;;;;;;8.57;2.13;;;;;;;;;;10406517;28;20040;-60
2022/09/14 08:24:51;;;;;;;12.85;2.53;;;;;;;;;;10393728;28;20041;-59
2022/09/14 08:29:52;;;;;;;9.48;2.22;;;;;;;;;;10404533;28;20028;-60
2022/09/14 08:34:54;;;;;;;6.10;2.10;;;;;;;;;;10382178;28;20377;-59
2022/09/14 08:39:55;;;;;;;5.32;2.10;;;;;;;;;;10396209;28;20028;-59
2022/09/14 08:45:02;;;;;;;11.35;2.28;;;;;;;;;;10405584;28;20029;-59
2022/09/14 08:50:17;;;;;;;6.85;1.95;;;;;;;;;;10406497;28;20366;-59
2022/09/14 08:55:27;;;;;;;4.18;1.95;;;;;;;;;;10405434;28;20025;-59
2022/09/14 09:00:48;;;;;;;5.30;2.05;;;;;;;;;;10406542;28;20112;-60
2022/09/14 09:06:37;;;;;;;13.00;2.13;;;;;;;;;;10389932;28;20106;-59
2022/09/14 09:11:45;;;;;;;7.53;2.20;;;;;;;;;;10383774;28;20080;-58
2022/09/14 09:16:50;;;;;;;6.25;1.88;;;;;;;;;;10400068;28;20053;-59
2022/09/14 09:21:51;;;;;;;7.20;2.00;;;;;;;;;;10400555;28;20385;-58
2022/09/14 09:26:51;;;;;;;9.90;2.35;;;;;;;;;;10414290;28;20034;-59
2022/09/14 09:31:55;;;;;;;3.83;1.80;;;;;;;;;;10413366;28;20029;-60
2022/09/14 09:36:55;;;;;;;5.63;1.70;;;;;;;;;;10404055;28;20068;-60
2022/09/14 09:42:11;;;;;;;2.65;1.77;;;;;;;;;;10385027;28;20433;-59
2022/09/14 09:47:11;;;;;;;4.22;1.60;;;;;;;;;;10381244;28;20477;-60
2022/09/14 09:52:15;;;;;;;6.03;2.03;;;;;;;;;;10414177;28;20025;-59
2022/09/14 09:57:32;;;;;;;2.72;1.52;;;;;;;;;;10407080;28;20034;-59
2022/09/14 10:02:33;;;;;;;4.30;1.77;;;;;;;;;;10382226;28;20125;-59
2022/09/14 10:07:50;;;;;;;5.85;2.20;;;;;;;;;;10411552;28;20052;-60
2022/09/14 10:12:55;;;;;;;3.65;1.85;;;;;;;;;;10427076;28;20037;-59
2022/09/14 10:18:11;;;;;;;3.90;1.75;;;;;;;;;;10412544;28;20029;-59
2022/09/14 10:23:17;;;;;;;4.28;1.70;;;;;;;;;;10385237;28;20033;-59
2022/09/14 10:28:31;;;;;;;3.65;1.85;;;;;;;;;;10385766;28;20382;-59
2022/09/14 10:33:34;;;;;;;4.60;2.03;;;;;;;;;;10393403;28;20037;-60
2022/09/14 10:38:46;;;;;;;5.38;1.92;;;;;;;;;;10384439;28;20084;-59
2022/09/14 10:44:02;;;;;;;8.07;2.15;;;;;;;;;;10411598;28;20052;-60
2022/09/14 10:49:23;;;;;;;4.72;2.17;;;;;;;;;;10396705;28;20128;-59
2022/09/14 10:54:44;;;;;;;4.28;1.83;;;;;;;;;;10399715;28;20466;-60
2022/09/14 10:59:52;;;;;;;3.47;1.70;;;;;;;;;;10411456;28;20033;-60
2022/09/14 11:05:24;;;;;;;3.22;1.83;;;;;;;;;;10408029;28;20428;-60
2022/09/14 11:11:03;;;;;;;4.68;1.88;;;;;;;;;;10410154;28;20309;-57
2022/09/14 11:16:52;;;;;;;3.00;1.63;;;;;;;;;;10390958;28;20030;-57
2022/09/14 11:22:03;;;;;;;2.80;1.80;;;;;;;;;;10404746;28;20037;-57
2022/09/14 11:27:29;;;;;;;1.88;1.60;;;;;;;;;;10391758;28;20025;-56
2022/09/14 11:32:45;;;;;;;5.22;1.88;;;;;;;;;;10395576;28;20062;-57
2022/09/14 11:37:57;;;;;;;3.40;1.80;;;;;;;;;;10394282;28;20025;-56
2022/09/14 11:43:10;;;;;;;3.40;1.85;;;;;;;;;;10388224;28;20029;-57
2022/09/14 11:48:54;;;;;;;3.92;1.50;;;;;;;;;;10404754;28;20037;-57
2022/09/14 11:53:55;;;;;;;3.13;1.73;;;;;;;;;;10406615;28;20038;-57
2022/09/14 11:59:03;;;;;;;3.92;1.60;;;;;;;;;;10406953;28;20021;-57
2022/09/14 12:04:10;;;;;;;4.03;2.22;;;;;;;;;;10407191;28;20042;-58
2022/09/14 12:09:16;;;;;;;4.30;2.05;;;;;;;;;;10408600;28;20456;-57
2022/09/14 12:14:23;;;;;;;6.95;2.25;;;;;;;;;;10394059;28;20072;-57
2022/09/14 12:19:25;;;;;;;3.05;2.00;;;;;;;;;;10395843;28;20043;-57
2022/09/14 12:24:26;;;;;;;3.95;2.00;;;;;;;;;;10405586;28;20413;-57
2022/09/14 12:29:32;;;;;;;11.30;3.05;;;;;;;;;;10407098;28;20034;-57
2022/09/14 12:34:33;;;;;;;2.65;2.25;;;;;;;;;;10396639;28;20036;-58
2022/09/14 12:39:35;;;;;;;5.93;2.38;;;;;;;;;;10406415;28;20120;-57
2022/09/14 12:44:41;;;;;;;7.13;2.63;;;;;;;;;;10411044;28;20353;-57
2022/09/14 12:49:42;;;;;;;8.13;2.40;;;;;;;;;;10403602;28;20122;-57
2022/09/14 12:55:24;;;;;;;9.57;2.78;;;;;;;;;;10404446;28;20022;-58
2022/09/14 13:00:25;;;;;;;13.50;3.00;;;;;;;;;;10399854;28;20056;-58
2022/09/14 13:05:30;;;;;;;6.03;2.88;;;;;;;;;;10393489;28;20421;-57
2022/09/14 13:10:34;;;;;;;8.05;2.65;;;;;;;;;;10387823;28;20025;-57
2022/09/14 13:15:46;;;;;;;5.38;2.95;;;;;;;;;;10403785;28;20048;-57
2022/09/14 13:20:56;;;;;;;4.90;2.67;;;;;;;;;;10406303;28;20104;-57
2022/09/14 13:25:58;;;;;;;8.68;2.30;;;;;;;;;;10377997;28;20046;-59
2022/09/14 13:31:00;;;;;;;12.18;2.78;;;;;;;;;;10390553;28;20026;-57
2022/09/14 13:36:03;;;;;;;6.47;2.28;;;;;;;;;;10405273;28;20034;-57
2022/09/14 13:41:15;;;;;;;3.85;2.20;;;;;;;;;;10405345;28;20116;-57
2022/09/14 13:46:15;;;;;;;6.63;2.50;;;;;;;;;;10404229;28;20481;-57
2022/09/14 13:51:26;;;;;;;6.10;2.35;;;;;;;;;;10404216;28;20029;-57
2022/09/14 13:56:29;;;;;;;5.85;2.20;;;;;;;;;;10404659;28;20491;-57
2022/09/14 14:01:30;;;;;;;5.22;2.45;;;;;;;;;;10411208;28;20033;-58
2022/09/14 14:06:34;;;;;;;10.05;2.60;;;;;;;;;;10411215;28;20049;-59
2022/09/14 14:11:45;;;;;;;7.55;2.20;;;;;;;;;;10408939;28;20417;-57
2022/09/14 14:17:23;;;;;;;5.28;2.55;;;;;;;;;;10417821;28;20029;-57
2022/09/14 14:22:30;;;;;;;5.93;2.30;;;;;;;;;;10411910;28;20374;-58
2022/09/14 14:27:35;;;;;;;6.93;1.90;;;;;;;;;;10397985;28;20127;-58
2022/09/14 14:32:35;;;;;;;7.43;2.20;;;;;;;;;;10404840;28;20045;-57
2022/09/14 14:37:36;;;;;;;9.77;2.22;;;;;;;;;;10405740;28;20030;-57
2022/09/14 14:42:37;;;;;;;7.35;2.28;;;;;;;;;;10409719;28;20017;-57
2022/09/14 14:47:38;;;;;;;6.82;2.03;;;;;;;;;;10404620;28;20128;-58
2022/09/14 14:52:39;;;;;;;3.88;1.60;;;;;;;;;;10408310;28;20044;-58
2022/09/14 14:57:40;;;;;;;5.53;2.15;;;;;;;;;;10410216;28;20397;-57
2022/09/14 15:02:41;;;;;;;6.10;2.15;;;;;;;;;;10409935;28;20388;-58
2022/09/14 15:07:41;;;;;;;4.03;2.25;;;;;;;;;;10400817;28;20060;-57
2022/09/14 15:12:43;;;;;;;11.77;2.38;;;;;;;;;;10400253;28;20480;-57
2022/09/14 15:17:43;;;;;;;6.38;2.20;;;;;;;;;;10410363;28;20030;-57
2022/09/14 15:22:45;;;;;;;4.90;2.10;;;;;;;;;;10396353;28;20599;-57
2022/09/14 15:27:47;;;;;;;6.28;2.22;;;;;;;;;;10409122;28;20178;-57
2022/09/14 15:32:47;;;;;;;4.30;1.83;;;;;;;;;;10407959;28;20040;-57
2022/09/14 15:37:48;;;;;;;4.25;2.22;;;;;;;;;;10404624;28;20496;-57
2022/09/14 15:42:49;;;;;;;3.75;2.20;;;;;;;;;;10403761;28;20018;-57
2022/09/14 15:47:50;;;;;;;2.72;2.28;;;;;;;;;;10408605;28;20075;-57
2022/09/14 15:52:50;;;;;;;5.38;2.30;;;;;;;;;;10406920;28;20025;-57
2022/09/14 15:57:51;;;;;;;4.20;2.10;;;;;;;;;;10408137;28;20029;-57
2022/09/14 16:02:52;;;;;;;4.10;2.10;;;;;;;;;;10388704;28;20029;-57
2022/09/14 16:07:56;;;;;;;4.53;1.85;;;;;;;;;;10397404;28;20054;-57
2022/09/14 16:12:57;;;;;;;8.23;2.28;;;;;;;;;;10392957;28;20124;-57
2022/09/14 16:17:57;;;;;;;3.95;2.45;;;;;;;;;;10394253;28;20100;-57
2022/09/14 16:22:58;;;;;;;4.93;2.38;;;;;;;;;;10389848;28;20033;-57
2022/09/14 16:27:58;;;;;;;3.80;2.10;;;;;;;;;;10395082;28;20030;-58
2022/09/14 16:32:59;;;;;;;5.47;2.17;;;;;;;;;;10397418;28;20028;-57
2022/09/14 16:38:00;;;;;;;4.25;2.33;;;;;;;;;;10388045;28;20115;-56
2022/09/14 16:43:00;;;;;;;11.95;2.45;;;;;;;;;;10397280;28;20030;-56
2022/09/14 16:48:01;;;;;;;5.70;2.13;;;;;;;;;;10407830;28;20480;-57
2022/09/14 16:53:02;;;;;;;7.22;1.90;;;;;;;;;;10414609;28;20515;-57
2022/09/14 16:58:02;;;;;;;6.10;2.30;;;;;;;;;;10406182;28;20029;-57
2022/09/14 17:03:03;;;;;;;6.15;2.33;;;;;;;;;;10392543;28;20543;-57
2022/09/14 17:08:04;;;;;;;4.93;2.05;;;;;;;;;;10392782;28;20412;-51
2022/09/14 17:13:04;;;;;;;5.32;2.30;;;;;;;;;;10403896;28;20088;-55
2022/09/14 17:18:05;;;;;;;8.85;2.30;;;;;;;;;;10406795;28;20038;-55
2022/09/14 17:23:05;;;;;;;7.18;2.25;;;;;;;;;;10405660;28;20033;-56
2022/09/14 17:28:06;;;;;;;7.97;2.25;;;;;;;;;;10406306;28;20080;-54
2022/09/14 17:33:06;;;;;;;5.60;2.05;;;;;;;;;;10399887;28;20042;-56
2022/09/14 17:38:07;;;;;;;7.90;2.58;;;;;;;;;;10413414;28;20088;-56
2022/09/14 17:43:09;;;;;;;3.97;2.38;;;;;;;;;;10411508;28;20477;-54
2022/09/14 17:48:10;;;;;;;8.77;2.80;;;;;;;;;;10409728;28;20138;-55
2022/09/14 17:53:11;;;;;;;5.78;2.20;;;;;;;;;;10410712;28;20044;-54
2022/09/14 17:58:11;;;;;;;5.75;2.55;;;;;;;;;;10413292;28;20030;-53
2022/09/14 18:03:12;;;;;;;5.50;2.72;;;;;;;;;;10408661;28;20041;-54
2022/09/14 18:08:12;;;;;;;6.75;2.58;;;;;;;;;;10411758;28;20135;-55
2022/09/14 18:13:13;;;;;;;10.88;3.75;;;;;;;;;;10408175;28;20034;-58
2022/09/14 18:18:13;;;;;;;10.45;2.60;;;;;;;;;;10410029;28;20029;-58
2022/09/14 18:23:15;;;;;;;7.25;2.55;;;;;;;;;;10410608;28;20030;-58
2022/09/14 18:28:16;;;;;;;6.00;3.00;;;;;;;;;;10400736;28;20045;-58
2022/09/14 18:33:17;;;;;;;5.38;2.85;;;;;;;;;;10399360;28;20032;-58
2022/09/14 18:38:17;;;;;;;12.82;2.70;;;;;;;;;;10404073;28;20033;-58
2022/09/14 18:43:18;;;;;;;9.52;3.72;;;;;;;;;;10404633;28;20025;-57
2022/09/14 18:48:18;;;;;;;17.70;3.30;;;;;;;;;;10407032;28;20064;-57
2022/09/14 18:53:19;;;;;;;10.07;4.22;;;;;;;;;;10408138;28;20029;-57
2022/09/14 18:58:19;;;;;;;8.60;3.53;;;;;;;;;;10408462;28;20030;-57
2022/09/14 19:03:20;;;;;;;6.97;3.65;;;;;;;;;;10410545;28;20156;-57
2022/09/14 19:08:22;;;;;;;7.53;4.00;;;;;;;;;;10407566;28;20045;-57
2022/09/14 19:13:22;;;;;;;7.72;3.60;;;;;;;;;;10407670;28;20030;-57
2022/09/14 19:18:23;;;;;;;6.53;3.47;;;;;;;;;;10408735;28;20021;-57
2022/09/14 19:23:23;;;;;;;6.60;3.10;;;;;;;;;;10409597;28;20500;-57
2022/09/14 19:28:24;;;;;;;12.30;3.58;;;;;;;;;;10406688;28;20444;-57
2022/09/14 19:33:24;;;;;;;6.70;3.20;;;;;;;;;;10407166;28;20063;-57
2022/09/14 19:38:27;;;;;;;8.43;3.67;;;;;;;;;;10409179;28;20030;-57
2022/09/14 19:43:30;;;;;;;8.48;3.25;;;;;;;;;;10399805;28;20036;-57
2022/09/14 19:48:31;;;;;;;14.05;3.45;;;;;;;;;;10398464;28;20487;-57
2022/09/14 19:53:35;;;;;;;9.35;3.60;;;;;;;;;;10397256;28;20031;-57
2022/09/14 19:58:38;;;;;;;7.03;3.38;;;;;;;;;;10408263;28;20069;-57
2022/09/14 20:03:39;;;;;;;7.10;3.40;;;;;;;;;;10408207;28;20037;-57
2022/09/14 20:08:40;;;;;;;5.20;3.22;;;;;;;;;;10409425;28;20045;-58
2022/09/14 20:13:41;;;;;;;7.18;2.85;;;;;;;;;;10402124;28;20397;-57
2022/09/14 20:18:43;;;;;;;7.40;3.78;;;;;;;;;;10401008;28;20087;-57
2022/09/14 20:23:44;;;;;;;6.03;3.33;;;;;;;;;;10403940;28;20469;-57
2022/09/14 20:28:45;;;;;;;10.38;3.60;;;;;;;;;;10407032;28;20048;-57
2022/09/14 20:33:45;;;;;;;5.60;3.22;;;;;;;;;;10407841;28;20025;-57
2022/09/14 20:38:52;;;;;;;5.20;3.50;;;;;;;;;;10407305;28;20021;-57
2022/09/14 20:43:54;;;;;;;8.23;3.40;;;;;;;;;;10396245;28;20044;-57
2022/09/14 20:48:54;;;;;;;6.95;3.45;;;;;;;;;;10405776;28;20372;-57
2022/09/14 20:53:55;;;;;;;9.70;3.88;;;;;;;;;;10398327;28;20022;-57
2022/09/14 20:58:59;;;;;;;4.90;3.15;;;;;;;;;;10390467;28;20408;-58
2022/09/14 21:04:04;;;;;;;10.07;3.80;;;;;;;;;;10397047;28;20045;-57
2022/09/14 21:09:06;;;;;;;5.75;4.03;;;;;;;;;;10397987;28;20029;-57
2022/09/14 21:14:07;;;;;;;12.13;5.13;;;;;;;;;;10414287;28;20037;-58
2022/09/14 21:19:27;;;;;;;7.32;4.10;;;;;;;;;;10404606;28;20046;-58
2022/09/14 21:24:29;;;;;;;8.43;4.30;;;;;;;;;;10414007;28;20461;-58
2022/09/14 21:29:30;;;;;;;8.52;3.83;;;;;;;;;;10404734;28;20075;-58
2022/09/14 21:34:31;;;;;;;6.97;3.90;;;;;;;;;;10407554;28;20033;-58
2022/09/14 21:39:32;;;;;;;8.57;4.32;;;;;;;;;;10403795;28;20061;-58
2022/09/14 21:44:36;;;;;;;6.85;4.10;;;;;;;;;;10411800;28;20041;-58
2022/09/14 21:49:37;;;;;;;9.38;4.15;;;;;;;;;;10407019;28;20075;-58
2022/09/14 21:54:39;;;;;;;13.88;4.20;;;;;;;;;;10408342;28;20025;-58
2022/09/14 21:59:39;;;;;;;9.50;3.92;;;;;;;;;;10411919;28;20040;-57
2022/09/14 22:04:40;;;;;;;13.63;5.57;;;;;;;;;;10402706;28;20406;-62
2022/09/14 22:09:41;;;;;;;8.65;5.32;;;;;;;;;;10402706;28;20030;-61
2022/09/14 22:14:41;;;;;;;9.68;6.53;;;;;;;;;;10404816;28;20095;-60
2022/09/14 22:19:43;;;;;;;15.15;6.97;;;;;;;;;;10413360;28;20037;-59
2022/09/14 22:24:44;;;;;;;10.10;7.10;;;;;;;;;;10419699;28;20473;-59
2022/09/14 22:29:45;;;;;;;10.82;5.95;;;;;;;;;;10414934;28;20112;-58
2022/09/14 22:34:46;;;;;;;9.35;6.03;;;;;;;;;;10411577;28;20033;-59
2022/09/14 22:39:47;;;;;;;12.57;7.32;;;;;;;;;;10411037;28;20492;-59
2022/09/14 22:44:47;;;;;;;14.80;8.10;;;;;;;;;;10399203;28;20021;-59
2022/09/14 22:49:48;;;;;;;11.15;8.80;;;;;;;;;;10411073;28;20033;-59
2022/09/14 22:54:49;;;;;;;18.00;10.38;;;;;;;;;;10381714;28;20056;-59
2022/09/14 22:59:49;;;;;;;14.98;9.18;;;;;;;;;;10380016;28;20147;-59
2022/09/14 23:04:50;;;;;;;14.85;10.40;;;;;;;;;;10383742;28;20053;-59
2022/09/14 23:09:51;;;;;;;16.30;11.23;;;;;;;;;;10384752;28;20032;-59
2022/09/14 23:14:51;;;;;;;18.52;11.55;;;;;;;;;;10384786;28;20374;-59
2022/09/14 23:19:52;;;;;;;15.98;12.05;;;;;;;;;;10390883;28;20025;-58
2022/09/14 23:24:52;;;;;;;15.93;12.25;;;;;;;;;;10409905;28;20025;-58
2022/09/14 23:29:53;;;;;;;27.73;13.25;;;;;;;;;;10375200;28;20029;-58
2022/09/14 23:34:54;;;;;;;20.92;12.10;;;;;;;;;;10378114;28;20437;-58
2022/09/14 23:39:54;;;;;;;17.27;11.73;;;;;;;;;;10392526;28;20066;-59
2022/09/14 23:44:55;;;;;;;15.15;11.27;;;;;;;;;;10392436;28;20149;-61
2022/09/14 23:49:55;;;;;;;14.57;12.07;;;;;;;;;;10381697;28;20504;-59
2022/09/14 23:54:56;;;;;;;15.00;11.48;;;;;;;;;;10387683;28;20470;-60
2022/09/14 23:59:57;;;;;;;16.80;11.00;;;;;;;;;;10403510;28;20029;-60
